createdAt,value
2019-03-19T00:00:25.935Z,60.24
2019-03-19T00:02:55.120Z,61.05
2019-03-19T00:05:24.369Z,62.17
2019-03-19T00:07:53.703Z,61.87
2019-03-19T00:10:22.959Z,61.94
2019-03-19T00:12:52.147Z,62.12
2019-03-19T00:15:21.328Z,62.70
2019-03-19T00:17:50.530Z,62.67
2019-03-19T00:20:19.755Z,62.87
2019-03-19T00:22:48.852Z,62.86
2019-03-19T00:25:29.110Z,63.54
2019-03-19T00:27:49.019Z,63.78
2019-03-19T00:30:18.781Z,64.06
2019-03-19T00:32:48.011Z,64.33
2019-03-19T00:35:17.177Z,64.46
2019-03-19T00:37:46.391Z,64.14
2019-03-19T00:40:16.514Z,63.93
2019-03-19T00:42:45.688Z,63.69
2019-03-19T00:45:15.112Z,63.46
2019-03-19T00:47:44.339Z,63.40
2019-03-19T00:50:16.627Z,63.48
2019-03-19T00:52:45.799Z,63.35
2019-03-19T00:55:15.109Z,63.08
2019-03-19T00:57:44.294Z,63.19
2019-03-19T01:00:18.067Z,62.94
2019-03-19T01:02:47.275Z,62.76
2019-03-19T01:05:16.450Z,62.95
2019-03-19T01:07:45.615Z,64.14
2019-03-19T01:10:17.496Z,64.24
2019-03-19T01:12:46.136Z,64.16
2019-03-19T01:15:15.602Z,64.16
2019-03-19T01:17:44.772Z,64.04
2019-03-19T01:20:15.394Z,63.98
2019-03-19T01:22:44.579Z,64.69
2019-03-19T01:25:13.749Z,65.43
2019-03-19T01:27:42.968Z,65.56
2019-03-19T01:30:16.513Z,65.81
2019-03-19T01:32:45.684Z,66.57
2019-03-19T01:35:14.943Z,67.25
2019-03-19T01:37:44.111Z,67.62
2019-03-19T01:40:13.677Z,68.36
2019-03-19T01:42:42.850Z,69.00
2019-03-19T01:45:13.256Z,69.28
2019-03-19T01:47:42.511Z,70.00
2019-03-19T01:50:16.125Z,70.03
2019-03-19T01:52:45.315Z,70.30
2019-03-19T01:55:15.434Z,70.50
2019-03-19T01:57:44.606Z,70.63
2019-03-19T02:00:16.388Z,70.33
2019-03-19T02:02:45.554Z,70.44
2019-03-19T02:05:14.854Z,71.27
2019-03-19T02:07:44.015Z,71.73
2019-03-19T02:10:14.217Z,72.81
2019-03-19T02:12:43.462Z,72.79
2019-03-19T02:15:14.997Z,72.88
2019-03-19T02:17:44.269Z,73.01
2019-03-19T02:20:14.979Z,72.70
2019-03-19T02:22:44.219Z,72.54
2019-03-19T02:25:13.393Z,72.47
2019-03-19T02:27:42.558Z,73.06
2019-03-19T02:30:14.330Z,73.04
2019-03-19T02:32:43.524Z,73.12
2019-03-19T02:35:12.867Z,73.25
2019-03-19T02:37:42.039Z,73.22
2019-03-19T02:40:13.261Z,74.09
2019-03-19T02:42:42.486Z,73.90
2019-03-19T02:45:12.897Z,74.75
2019-03-19T02:47:42.079Z,75.27
2019-03-19T02:50:13.000Z,76.20
2019-03-19T02:52:42.215Z,77.00
2019-03-19T02:55:11.453Z,77.34
2019-03-19T02:57:40.635Z,77.52
2019-03-19T03:00:14.668Z,77.81
2019-03-19T03:02:43.858Z,77.97
2019-03-19T03:05:20.131Z,77.72
2019-03-19T03:07:49.372Z,77.44
2019-03-19T03:10:18.699Z,77.37
2019-03-19T03:12:47.977Z,78.56
2019-03-19T03:15:17.133Z,79.91
2019-03-19T03:17:46.309Z,81.46
2019-03-19T03:20:16.400Z,81.37
2019-03-19T03:22:45.668Z,81.13
2019-03-19T03:25:18.308Z,81.89
2019-03-19T03:27:47.490Z,82.11
2019-03-19T03:30:18.221Z,82.53
2019-03-19T03:32:47.447Z,82.48
2019-03-19T03:35:16.584Z,82.27
2019-03-19T03:37:45.775Z,82.15
2019-03-19T03:40:16.276Z,82.12
2019-03-19T03:42:45.495Z,81.52
2019-03-19T03:45:16.783Z,81.41
2019-03-19T03:47:45.992Z,81.03
2019-03-19T03:50:16.293Z,80.41
2019-03-19T03:52:45.487Z,80.18
2019-03-19T03:55:15.580Z,80.62
2019-03-19T03:57:44.754Z,81.69
2019-03-19T04:00:17.022Z,81.81
2019-03-19T04:02:46.266Z,81.67
2019-03-19T04:05:15.612Z,81.73
2019-03-19T04:07:44.910Z,81.71
2019-03-19T04:10:16.407Z,81.38
2019-03-19T04:12:45.607Z,81.36
2019-03-19T04:15:16.676Z,82.03
2019-03-19T04:17:45.846Z,82.27
2019-03-19T04:20:16.174Z,82.70
2019-03-19T04:22:45.368Z,82.94
2019-03-19T04:25:14.677Z,82.79
2019-03-19T04:27:43.883Z,83.15
2019-03-19T04:30:20.122Z,83.75
2019-03-19T04:32:49.362Z,83.85
2019-03-19T04:35:18.509Z,84.18
2019-03-19T04:37:47.707Z,84.40
2019-03-19T04:40:17.238Z,84.85
2019-03-19T04:42:46.490Z,84.97
2019-03-19T04:45:16.692Z,85.13
2019-03-19T04:47:46.026Z,85.28
2019-03-19T04:50:16.272Z,85.21
2019-03-19T04:52:45.424Z,85.42
2019-03-19T04:55:15.442Z,85.53
2019-03-19T04:57:44.688Z,85.81
2019-03-19T05:00:16.157Z,85.77
2019-03-19T05:02:45.340Z,86.19
2019-03-19T05:05:14.531Z,86.25
2019-03-19T05:07:43.797Z,86.07
2019-03-19T05:10:19.325Z,85.54
2019-03-19T05:12:49.353Z,85.56
2019-03-19T05:15:18.567Z,85.67
2019-03-19T05:17:47.750Z,85.52
2019-03-19T05:20:18.112Z,85.58
2019-03-19T05:22:47.313Z,85.67
2019-03-19T05:25:16.490Z,85.69
2019-03-19T05:27:45.957Z,85.75
2019-03-19T05:30:19.211Z,85.80
2019-03-19T05:32:48.420Z,85.68
2019-03-19T05:35:17.613Z,85.54
2019-03-19T05:37:46.810Z,85.73
2019-03-19T05:40:16.869Z,85.90
2019-03-19T05:42:46.082Z,85.95
2019-03-19T05:45:15.848Z,85.98
2019-03-19T05:47:45.036Z,85.42
2019-03-19T05:50:16.480Z,85.43
2019-03-19T05:52:48.320Z,85.68
2019-03-19T05:55:16.616Z,86.00
2019-03-19T05:57:49.809Z,86.77
2019-03-19T06:00:19.342Z,87.16
2019-03-19T06:02:48.598Z,87.02
2019-03-19T06:05:17.796Z,87.11
2019-03-19T06:07:46.978Z,86.97
2019-03-19T06:10:16.280Z,86.87
2019-03-19T06:12:45.468Z,86.91
2019-03-19T06:15:17.477Z,86.95
2019-03-19T06:17:46.668Z,86.96
2019-03-19T06:20:20.525Z,87.93
2019-03-19T06:22:49.736Z,87.53
2019-03-19T06:25:18.996Z,86.96
2019-03-19T06:27:48.168Z,86.35
2019-03-19T06:30:22.736Z,86.76
2019-03-19T06:32:51.917Z,87.32
2019-03-19T06:35:21.176Z,87.42
2019-03-19T06:37:50.441Z,87.52
2019-03-19T06:40:23.037Z,87.19
2019-03-19T06:42:52.175Z,86.23
2019-03-19T06:45:23.256Z,85.44
2019-03-19T06:47:52.599Z,85.38
2019-03-19T06:50:22.118Z,85.18
2019-03-19T06:52:51.319Z,84.49
2019-03-19T06:55:21.156Z,85.24
2019-03-19T06:57:50.332Z,85.93
2019-03-19T07:00:23.814Z,86.49
2019-03-19T07:02:53.038Z,86.81
2019-03-19T07:05:22.864Z,86.89
2019-03-19T07:07:52.060Z,86.33
2019-03-19T07:10:21.774Z,86.09
2019-03-19T07:12:50.949Z,86.05
2019-03-19T07:15:23.615Z,86.17
2019-03-19T07:17:52.824Z,86.29
2019-03-19T07:20:26.891Z,86.43
2019-03-19T07:22:56.138Z,86.12
2019-03-19T07:25:25.316Z,86.08
2019-03-19T07:27:54.499Z,85.87
2019-03-19T07:30:24.636Z,85.76
2019-03-19T07:32:53.824Z,85.64
2019-03-19T07:35:23.017Z,85.56
2019-03-19T07:37:52.211Z,85.30
2019-03-19T07:40:21.381Z,85.50
2019-03-19T07:42:50.565Z,85.38
2019-03-19T07:45:21.170Z,85.21
2019-03-19T07:47:50.415Z,85.04
2019-03-19T07:50:23.717Z,85.40
2019-03-19T07:52:53.030Z,84.97
2019-03-19T07:55:22.230Z,85.09
2019-03-19T07:57:51.412Z,85.14
2019-03-19T08:00:23.732Z,85.59
2019-03-19T08:02:52.905Z,85.40
2019-03-19T08:05:32.238Z,85.67
2019-03-19T08:07:52.978Z,85.70
2019-03-19T08:10:22.179Z,86.00
2019-03-19T08:12:51.350Z,85.96
2019-03-19T08:15:23.492Z,85.86
2019-03-19T08:17:52.670Z,85.74
2019-03-19T08:20:21.892Z,85.65
2019-03-19T08:22:51.076Z,85.54
2019-03-19T08:25:20.260Z,85.48
2019-03-19T08:27:49.364Z,85.80
2019-03-19T08:30:28.246Z,86.13
2019-03-19T08:32:57.437Z,86.03
2019-03-19T08:35:26.624Z,86.14
2019-03-19T08:37:55.818Z,86.11
2019-03-19T08:40:24.977Z,85.99
2019-03-19T08:42:54.156Z,85.70
2019-03-19T08:45:24.599Z,86.12
2019-03-19T08:47:53.780Z,86.16
2019-03-19T08:50:23.791Z,85.95
2019-03-19T08:52:55.272Z,86.00
2019-03-19T08:55:23.836Z,85.65
2019-03-19T08:57:53.025Z,85.54
2019-03-19T09:00:27.364Z,85.44
2019-03-19T09:02:56.544Z,85.43
2019-03-19T09:05:25.724Z,85.55
2019-03-19T09:07:54.976Z,85.41
2019-03-19T09:10:24.206Z,85.39
2019-03-19T09:12:53.388Z,85.09
2019-03-19T09:15:27.726Z,85.04
2019-03-19T09:17:56.997Z,85.00
2019-03-19T09:20:26.176Z,84.36
2019-03-19T09:22:55.372Z,83.90
2019-03-19T09:25:24.573Z,83.68
2019-03-19T09:27:53.745Z,83.72
2019-03-19T09:30:24.077Z,83.80
2019-03-19T09:32:53.262Z,83.85
2019-03-19T09:35:22.500Z,83.79
2019-03-19T09:37:58.483Z,83.65
2019-03-19T09:40:22.994Z,83.81
2019-03-19T09:42:52.169Z,83.33
2019-03-19T09:45:21.412Z,83.24
2019-03-19T09:47:50.587Z,82.37
2019-03-19T09:50:24.694Z,81.46
2019-03-19T09:52:53.855Z,81.59
2019-03-19T09:55:23.116Z,81.89
2019-03-19T09:57:52.309Z,81.70
2019-03-19T10:00:23.307Z,81.58
2019-03-19T10:02:52.483Z,81.24
2019-03-19T10:05:21.654Z,80.53
2019-03-19T10:07:50.854Z,79.73
2019-03-19T10:10:21.261Z,80.15
2019-03-19T10:12:50.478Z,80.70
2019-03-19T10:15:19.727Z,81.07
2019-03-19T10:17:48.908Z,80.25
2019-03-19T10:20:22.179Z,80.78
2019-03-19T10:22:51.358Z,80.36
2019-03-19T10:25:20.551Z,79.82
2019-03-19T10:27:49.715Z,79.26
2019-03-19T10:30:24.971Z,79.56
2019-03-19T10:32:54.148Z,79.53
2019-03-19T10:35:23.337Z,78.82
2019-03-19T10:37:52.534Z,78.36
2019-03-19T10:40:22.356Z,77.70
2019-03-19T10:42:51.537Z,76.83
2019-03-19T10:45:22.814Z,75.39
2019-03-19T10:47:52.410Z,75.15
2019-03-19T10:50:26.384Z,75.33
2019-03-19T10:52:55.568Z,75.09
2019-03-19T10:55:25.729Z,74.23
2019-03-19T10:57:54.910Z,74.15
2019-03-19T11:00:27.589Z,74.72
2019-03-19T11:02:56.798Z,74.36
2019-03-19T11:05:26.343Z,73.14
2019-03-19T11:07:55.517Z,73.14
2019-03-19T11:10:24.709Z,72.54
2019-03-19T11:12:53.909Z,72.49
2019-03-19T11:15:27.185Z,72.03
2019-03-19T11:17:56.366Z,71.40
2019-03-19T11:20:25.556Z,72.91
2019-03-19T11:22:54.751Z,73.95
2019-03-19T11:25:30.812Z,73.95
2019-03-19T11:28:00.016Z,72.97
2019-03-19T11:30:30.454Z,72.57
2019-03-19T11:32:59.620Z,71.60
2019-03-19T11:35:28.932Z,72.35
2019-03-19T11:37:58.116Z,72.35
2019-03-19T11:40:27.299Z,72.71
2019-03-19T11:42:56.476Z,72.07
2019-03-19T11:45:26.026Z,72.30
2019-03-19T11:47:55.212Z,72.81
2019-03-19T11:50:28.434Z,72.71
2019-03-19T11:52:57.630Z,71.71
2019-03-19T11:55:26.879Z,70.84
2019-03-19T11:57:57.597Z,69.17
2019-03-19T12:00:37.293Z,69.17
2019-03-19T12:03:14.995Z,69.06
2019-03-19T12:05:37.719Z,69.24
2019-03-19T12:08:07.075Z,68.74
2019-03-19T12:10:36.264Z,67.84
2019-03-19T12:13:05.688Z,67.88
2019-03-19T12:15:34.897Z,67.88
2019-03-19T12:18:04.347Z,67.29
2019-03-19T12:20:33.522Z,64.11
2019-03-19T12:23:02.772Z,63.89
2019-03-19T12:25:31.888Z,63.89
2019-03-19T12:28:01.178Z,63.44
2019-03-19T12:30:30.358Z,63.44
2019-03-19T12:32:59.545Z,64.08
2019-03-19T12:35:30.787Z,64.63
2019-03-19T12:37:59.675Z,65.05
2019-03-19T12:40:36.780Z,65.05
2019-03-19T12:42:59.897Z,63.87
2019-03-19T12:45:29.075Z,63.87
2019-03-19T12:47:58.255Z,64.20
2019-03-19T12:50:27.664Z,64.20
2019-03-19T12:52:57.011Z,63.92
2019-03-19T12:55:26.146Z,64.32
2019-03-19T12:57:55.324Z,64.34
2019-03-19T13:00:34.354Z,63.22
2019-03-19T13:02:56.711Z,63.22
2019-03-19T13:05:25.819Z,63.53
2019-03-19T13:07:54.995Z,63.19
2019-03-19T13:10:24.937Z,62.88
2019-03-19T13:12:54.106Z,61.50
2019-03-19T13:15:23.287Z,60.54
2019-03-19T13:17:52.463Z,60.54
2019-03-19T13:20:22.875Z,60.52
2019-03-19T13:22:52.062Z,60.28
2019-03-19T13:25:24.952Z,59.66
2019-03-19T13:27:54.186Z,58.08
2019-03-19T13:30:27.718Z,58.08
2019-03-19T13:32:56.893Z,57.04
2019-03-19T13:35:26.080Z,57.43
2019-03-19T13:37:55.261Z,57.43
2019-03-19T13:40:24.452Z,58.24
2019-03-19T13:42:53.645Z,58.24
2019-03-19T13:45:23.885Z,57.30
2019-03-19T13:47:53.131Z,56.23
2019-03-19T13:50:22.678Z,56.39
2019-03-19T13:52:51.933Z,56.83
2019-03-19T13:55:24.683Z,56.83
2019-03-19T13:57:53.860Z,57.29
2019-03-19T14:00:23.042Z,57.73
2019-03-19T14:02:52.319Z,58.82
2019-03-19T14:05:21.442Z,59.03
2019-03-19T14:07:50.620Z,58.58
2019-03-19T14:10:20.347Z,58.58
2019-03-19T14:12:49.523Z,58.81
2019-03-19T14:15:20.560Z,58.19
2019-03-19T14:17:49.732Z,57.91
2019-03-19T14:20:18.995Z,57.77
2019-03-19T14:22:48.168Z,57.45
2019-03-19T14:25:17.681Z,56.87
2019-03-19T14:27:46.870Z,56.56
2019-03-19T14:30:17.629Z,55.98
2019-03-19T14:32:46.893Z,55.79
2019-03-19T14:35:16.051Z,55.67
2019-03-19T14:37:45.672Z,55.66
2019-03-19T14:40:17.216Z,56.30
2019-03-19T14:42:46.522Z,56.19
2019-03-19T14:45:16.730Z,56.30
2019-03-19T14:47:45.900Z,56.33
2019-03-19T14:50:19.987Z,56.29
2019-03-19T14:52:49.160Z,56.52
2019-03-19T14:55:18.403Z,56.42
2019-03-19T14:57:47.927Z,56.72
2019-03-19T15:00:18.352Z,56.56
2019-03-19T15:02:47.602Z,56.48
2019-03-19T15:05:16.770Z,55.95
2019-03-19T15:07:45.959Z,55.66
2019-03-19T15:10:20.170Z,55.69
2019-03-19T15:12:49.338Z,55.96
2019-03-19T15:15:22.025Z,56.26
2019-03-19T15:17:51.778Z,55.96
2019-03-19T15:20:25.495Z,55.86
2019-03-19T15:22:54.741Z,55.79
2019-03-19T15:25:23.982Z,55.77
2019-03-19T15:27:53.436Z,55.87
2019-03-19T15:30:22.619Z,56.20
2019-03-19T15:32:51.804Z,56.11
2019-03-19T15:35:20.986Z,56.16
2019-03-19T15:37:50.164Z,56.45
2019-03-19T15:40:20.184Z,57.43
2019-03-19T15:42:49.417Z,58.11
2019-03-19T15:45:20.811Z,58.40
2019-03-19T15:47:49.996Z,58.70
2019-03-19T15:50:19.176Z,58.84
2019-03-19T15:52:48.462Z,58.91
2019-03-19T15:55:17.640Z,59.02
2019-03-19T15:57:46.817Z,58.68
2019-03-19T16:00:20.123Z,58.30
2019-03-19T16:02:49.298Z,57.94
2019-03-19T16:05:18.483Z,57.21
2019-03-19T16:07:47.668Z,57.21
2019-03-19T16:10:17.782Z,55.63
2019-03-19T16:12:46.953Z,54.77
2019-03-19T16:15:19.958Z,54.64
2019-03-19T16:17:49.126Z,54.64
2019-03-19T16:20:22.499Z,54.16
2019-03-19T16:22:51.665Z,53.85
2019-03-19T16:25:20.847Z,53.87
2019-03-19T16:27:53.643Z,54.36
2019-03-19T16:30:22.866Z,53.99
2019-03-19T16:32:52.086Z,53.29
2019-03-19T16:35:21.269Z,53.75
2019-03-19T16:37:50.475Z,53.75
2019-03-19T16:40:23.396Z,54.31
2019-03-19T16:42:52.569Z,54.66
2019-03-19T16:45:21.842Z,54.66
2019-03-19T16:47:51.015Z,55.88
2019-03-19T16:50:22.399Z,55.88
2019-03-19T16:52:51.571Z,56.64
2019-03-19T16:55:23.797Z,57.90
2019-03-19T16:57:53.021Z,58.42
2019-03-19T17:00:24.004Z,58.51
2019-03-19T17:02:53.180Z,59.47
2019-03-19T17:05:22.370Z,60.22
2019-03-19T17:07:51.611Z,60.20
2019-03-19T17:10:26.177Z,60.21
2019-03-19T17:12:55.363Z,60.21
2019-03-19T17:15:24.523Z,60.56
2019-03-19T17:17:53.737Z,61.01
2019-03-19T17:20:22.921Z,62.03
2019-03-19T17:22:52.120Z,62.03
2019-03-19T17:25:27.757Z,62.62
2019-03-19T17:27:56.936Z,62.62
2019-03-19T17:30:30.830Z,64.26
2019-03-19T17:33:00.002Z,64.52
2019-03-19T17:35:29.230Z,64.52
2019-03-19T17:37:58.389Z,64.86
2019-03-19T17:40:27.582Z,64.96
2019-03-19T17:42:56.798Z,64.91
2019-03-19T17:45:25.940Z,64.91
2019-03-19T17:47:55.151Z,65.57
2019-03-19T17:50:32.635Z,65.87
2019-03-19T17:53:01.834Z,66.20
2019-03-19T17:55:31.004Z,66.58
2019-03-19T17:58:00.180Z,66.82
2019-03-19T18:00:33.747Z,66.82
2019-03-19T18:03:07.344Z,66.19
2019-03-19T18:05:36.539Z,66.19
2019-03-19T18:08:05.914Z,66.33
2019-03-19T18:10:35.168Z,66.33
2019-03-19T18:13:06.505Z,65.54
2019-03-19T18:15:35.230Z,65.36
2019-03-19T18:18:04.648Z,65.46
2019-03-19T18:20:33.827Z,65.22
2019-03-19T18:23:03.233Z,65.48
2019-03-19T18:25:32.411Z,65.48
2019-03-19T18:28:01.589Z,65.90
2019-03-19T18:30:30.788Z,66.30
2019-03-19T18:32:59.969Z,66.30
2019-03-19T18:35:29.136Z,66.41
2019-03-19T18:37:58.320Z,66.61
2019-03-19T18:40:27.491Z,66.61
2019-03-19T18:42:56.661Z,66.08
2019-03-19T18:45:25.878Z,66.04
2019-03-19T18:47:55.134Z,66.43
2019-03-19T18:50:24.487Z,66.24
2019-03-19T18:52:53.664Z,66.24
2019-03-19T18:55:22.844Z,66.31
2019-03-19T18:57:52.033Z,66.21
2019-03-19T19:00:24.796Z,66.67
2019-03-19T19:02:53.984Z,66.56
2019-03-19T19:05:24.692Z,66.56
2019-03-19T19:07:53.872Z,67.02
2019-03-19T19:10:23.078Z,67.02
2019-03-19T19:12:52.264Z,67.35
2019-03-19T19:15:22.582Z,66.97
2019-03-19T19:17:51.842Z,67.54
2019-03-19T19:20:21.094Z,67.54
2019-03-19T19:22:50.293Z,68.07
2019-03-19T19:25:23.642Z,69.13
2019-03-19T19:27:52.823Z,69.29
2019-03-19T19:30:26.059Z,69.81
2019-03-19T19:33:01.463Z,69.81
2019-03-19T19:35:26.073Z,70.10
2019-03-19T19:37:55.248Z,70.45
2019-03-19T19:40:24.445Z,70.45
2019-03-19T19:42:53.653Z,71.02
2019-03-19T19:45:22.856Z,71.59
2019-03-19T19:47:52.089Z,71.88
2019-03-19T19:50:22.527Z,72.13
2019-03-19T19:52:51.734Z,72.49
2019-03-19T19:55:20.924Z,72.49
2019-03-19T19:57:50.461Z,72.23
2019-03-19T20:00:20.890Z,72.18
2019-03-19T20:02:50.139Z,72.42
2019-03-19T20:05:19.330Z,72.42
2019-03-19T20:07:48.496Z,72.66
2019-03-19T20:10:20.208Z,72.40
2019-03-19T20:12:49.385Z,72.40
2019-03-19T20:15:18.563Z,71.90
2019-03-19T20:17:47.762Z,72.02
2019-03-19T20:20:18.689Z,72.02
2019-03-19T20:22:47.892Z,72.38
2019-03-19T20:25:17.075Z,72.38
2019-03-19T20:27:46.316Z,72.91
2019-03-19T20:30:23.203Z,73.05
2019-03-19T20:32:52.454Z,73.04
2019-03-19T20:35:21.690Z,73.41
2019-03-19T20:37:50.865Z,73.41
2019-03-19T20:40:20.183Z,73.15
2019-03-19T20:42:49.344Z,73.29
2019-03-19T20:45:20.058Z,73.60
2019-03-19T20:47:49.253Z,73.56
2019-03-19T20:50:21.262Z,73.72
2019-03-19T20:52:50.436Z,73.73
2019-03-19T20:55:19.603Z,73.62
2019-03-19T20:57:48.731Z,73.85
2019-03-19T21:00:18.561Z,73.89
2019-03-19T21:02:47.802Z,73.71
2019-03-19T21:05:17.001Z,73.72
2019-03-19T21:07:46.183Z,73.54
2019-03-19T21:10:19.976Z,73.19
2019-03-19T21:12:49.460Z,73.00
2019-03-19T21:15:21.685Z,72.97
2019-03-19T21:17:50.955Z,73.09
2019-03-19T21:20:20.207Z,73.09
2019-03-19T21:22:49.442Z,73.04
2019-03-19T21:25:18.647Z,73.57
2019-03-19T21:27:47.852Z,73.62
2019-03-19T21:30:20.563Z,73.56
2019-03-19T21:32:49.745Z,73.83
2019-03-19T21:35:27.815Z,73.33
2019-03-19T21:37:57.025Z,73.33
2019-03-19T21:40:26.223Z,73.40
2019-03-19T21:42:55.425Z,73.62
2019-03-19T21:45:24.630Z,73.54
2019-03-19T21:47:53.832Z,73.56
2019-03-19T21:50:24.352Z,73.96
2019-03-19T21:52:53.530Z,73.66
2019-03-19T21:55:22.719Z,73.66
2019-03-19T21:57:51.902Z,73.73
2019-03-19T22:00:25.361Z,73.73
2019-03-19T22:02:54.534Z,73.97
2019-03-19T22:05:25.762Z,74.42
2019-03-19T22:07:55.003Z,74.64
2019-03-19T22:10:24.170Z,74.67
2019-03-19T22:12:53.482Z,75.17
2019-03-19T22:15:24.748Z,75.29
2019-03-19T22:17:53.924Z,75.38
2019-03-19T22:20:23.111Z,75.68
2019-03-19T22:22:52.292Z,76.09
2019-03-19T22:25:21.478Z,76.79
2019-03-19T22:27:50.672Z,77.27
2019-03-19T22:30:20.587Z,77.17
2019-03-19T22:32:49.832Z,77.30
2019-03-19T22:35:19.025Z,77.33
2019-03-19T22:37:48.210Z,77.81
2019-03-19T22:40:18.042Z,77.86
2019-03-19T22:42:47.495Z,78.11
2019-03-19T22:45:18.584Z,78.22
2019-03-19T22:47:47.845Z,78.62
2019-03-19T22:50:18.901Z,78.80
2019-03-19T22:52:48.144Z,78.68
2019-03-19T22:55:28.147Z,78.80
2019-03-19T22:57:48.216Z,78.70
2019-03-19T23:00:23.598Z,78.48
2019-03-19T23:02:52.804Z,78.81
2019-03-19T23:05:21.982Z,78.89
2019-03-19T23:07:51.158Z,79.11
2019-03-19T23:10:20.346Z,79.34
2019-03-19T23:12:49.518Z,78.78
2019-03-19T23:15:19.190Z,78.78
2019-03-19T23:17:48.375Z,78.25
2019-03-19T23:20:17.558Z,78.37
2019-03-19T23:22:46.750Z,77.95
2019-03-19T23:25:15.994Z,77.95
2019-03-19T23:27:45.186Z,77.96
2019-03-19T23:30:18.628Z,78.24
2019-03-19T23:32:47.798Z,78.24
2019-03-19T23:35:16.971Z,78.25
2019-03-19T23:37:46.271Z,78.32
2019-03-19T23:40:17.071Z,78.15
2019-03-19T23:42:46.252Z,77.99
2019-03-19T23:45:15.516Z,77.89
2019-03-19T23:47:44.712Z,77.56
2019-03-19T23:50:18.810Z,77.01
2019-03-19T23:52:48.338Z,76.74
2019-03-19T23:55:17.520Z,76.74
2019-03-19T23:57:46.706Z,77.37
